Time;durP1;ratioP1;P1;durP2;ratioP2;P2;SDS_P1;SDS_P2;PMS_P1;PMS_P2;Temp;Humidity;BMP_temperature;BMP_pressure;BME280_temperature;BME280_humidity;BME280_pressure;Samples;Min_cycle;Max_cycle;Signal;HPM_P1;HPM_P2
2022/09/30 00:02:02;;;;;;;8.55;3.70;;;;;;;11.28;82.27;100190.81;4993498;28;20046;-44
2022/09/30 00:08:10;;;;;;;4.28;3.17;;;;;;;11.34;82.33;100194.91;5012617;28;20120;-45
2022/09/30 00:11:12;;;;;;;6.68;3.00;;;;;;;11.33;81.96;100193.31;5001820;28;20045;-44
2022/09/30 00:14:00;;;;;;;6.93;3.45;;;;;;;11.31;82.09;100189.28;4997198;28;20053;-45
2022/09/30 00:24:07;;;;;;;4.65;2.80;;;;;;;11.28;82.02;100181.72;5003078;28;20045;-44
2022/09/30 00:26:34;;;;;;;3.20;2.60;;;;;;;11.28;82.06;100165.88;5003429;28;20059;-44
2022/09/30 00:29:02;;;;;;;2.72;2.15;;;;;;;11.32;81.98;100169.53;4998988;28;20093;-44
2022/09/30 00:31:32;;;;;;;2.47;1.88;;;;;;;11.34;81.97;100161.66;4995617;28;20564;-45
2022/09/30 00:37:49;;;;;;;4.68;2.13;;;;;;;11.38;81.86;100157.00;4993437;28;20191;-44
2022/09/30 00:41:29;;;;;;;2.33;2.13;;;;;;;11.38;81.89;100156.19;4993492;28;20054;-45
2022/09/30 00:43:56;;;;;;;5.25;1.92;;;;;;;11.35;82.04;100157.72;4996215;28;20058;-45
2022/09/30 00:46:32;;;;;;;5.53;2.03;;;;;;;11.35;82.26;100152.19;5012025;28;20076;-44
2022/09/30 00:49:24;;;;;;;2.35;2.05;;;;;;;11.36;82.10;100142.69;5012630;28;20483;-45
2022/09/30 00:52:12;;;;;;;3.85;2.15;;;;;;;11.36;82.06;100131.59;5019322;28;20390;-44
2022/09/30 01:03:24;;;;;;;4.10;2.50;;;;;;;11.34;81.87;100128.41;5005653;28;20045;-45
2022/09/30 01:06:11;;;;;;;3.22;2.17;;;;;;;11.33;81.87;100121.25;4997583;28;20042;-44
2022/09/30 01:09:00;;;;;;;5.30;2.13;;;;;;;11.31;81.79;100115.28;5007229;28;20050;-45
2022/09/30 01:15:29;;;;;;;5.22;3.17;;;;;;;11.30;82.04;100088.75;5003461;28;20046;-45
2022/09/30 01:23:02;;;;;;;3.42;2.35;;;;;;;11.31;82.13;100064.59;4998125;28;20046;-45
2022/09/30 01:30:22;;;;;;;2.72;2.00;;;;;;;11.30;82.38;100061.03;5008667;28;20053;-45
2022/09/30 01:37:44;;;;;;;4.05;3.05;;;;;;;11.32;82.46;100055.13;5006359;28;20125;-47
2022/09/30 01:40:40;;;;;;;5.40;2.63;;;;;;;11.32;82.63;100042.06;5008938;28;20046;-44
2022/09/30 01:43:33;;;;;;;3.22;2.63;;;;;;;11.33;82.44;100038.09;5028953;28;20066;-45
2022/09/30 01:47:04;;;;;;;3.63;2.50;;;;;;;11.31;82.59;100040.44;5013885;28;20046;-46
2022/09/30 01:49:49;;;;;;;5.13;3.15;;;;;;;11.28;82.76;100027.31;5014190;28;20369;-45
2022/09/30 01:52:43;;;;;;;3.35;2.58;;;;;;;11.27;82.81;100009.13;5016920;28;20045;-44
2022/09/30 02:06:39;;;;;;;3.20;2.20;;;;;;;11.25;82.98;100014.19;5016131;28;20080;-47
2022/09/30 02:17:50;;;;;;;7.07;2.42;;;;;;;11.14;82.86;99974.44;5015656;28;20034;-46
2022/09/30 02:24:07;;;;;;;5.32;3.15;;;;;;;11.14;82.93;99949.50;5023643;28;20037;-44
2022/09/30 02:30:43;;;;;;;6.30;2.20;;;;;;;11.16;82.96;99927.75;5017903;28;20502;-44
2022/09/30 02:37:56;;;;;;;2.08;1.63;;;;;;;11.20;82.96;99912.00;5014932;28;20046;-43
2022/09/30 02:40:43;;;;;;;1.57;1.47;;;;;;;11.23;82.79;99905.72;4996220;28;20046;-46
2022/09/30 02:51:47;;;;;;;1.23;0.82;;;;;;;11.32;82.39;99867.47;4993180;28;20070;-45
2022/09/30 02:54:47;;;;;;;2.50;0.63;;;;;;;11.34;82.19;99862.38;4996059;28;20389;-44
2022/09/30 02:57:18;;;;;;;1.35;0.82;;;;;;;11.39;82.26;99859.28;5002018;28;20173;-44
2022/09/30 02:59:51;;;;;;;2.42;0.65;;;;;;;11.42;82.17;99858.53;4995183;28;20031;-44
2022/09/30 03:05:34;;;;;;;3.55;1.08;;;;;;;11.48;81.70;99848.75;5445707;22;20507;-45
2022/09/30 03:08:22;;;;;;;1.20;0.75;;;;;;;11.51;81.76;99838.88;5031719;28;20045;-45
2022/09/30 03:19:22;;;;;;;5.00;2.45;;;;;;;11.52;81.29;99824.63;5025192;28;20052;-44
2022/09/30 03:22:30;;;;;;;0.85;0.60;;;;;;;11.52;81.14;99830.19;5011366;28;20052;-45
2022/09/30 03:25:47;;;;;;;1.83;0.68;;;;;;;11.55;80.98;99809.22;5031950;28;20417;-44
2022/09/30 03:29:21;;;;;;;7.93;0.88;;;;;;;11.56;80.62;99797.78;5026943;28;20418;-44
2022/09/30 03:32:05;;;;;;;3.05;0.57;;;;;;;11.58;80.61;99784.34;5015504;28;20100;-45
2022/09/30 03:34:48;;;;;;;0.93;0.57;;;;;;;11.58;80.35;99764.94;5031465;28;20137;-47
2022/09/30 03:37:59;;;;;;;3.70;0.70;;;;;;;11.60;80.40;99778.41;5032160;28;20057;-44
2022/09/30 03:41:03;;;;;;;0.60;0.40;;;;;;;11.60;80.03;99765.34;5022564;28;20049;-44
2022/09/30 03:44:01;;;;;;;3.13;0.70;;;;;;;11.62;79.82;99768.53;5019630;28;20042;-44
2022/09/30 03:46:55;;;;;;;0.35;0.20;;;;;;;11.63;79.72;99769.34;5027171;28;20407;-44
2022/09/30 03:49:49;;;;;;;1.63;0.43;;;;;;;11.65;79.31;99757.88;5031264;28;20057;-44
2022/09/30 03:52:17;;;;;;;0.82;0.50;;;;;;;11.67;79.31;99747.22;5031913;28;20040;-44
2022/09/30 03:55:16;;;;;;;1.48;0.60;;;;;;;11.68;79.00;99743.25;5031655;28;20055;-44
2022/09/30 03:58:03;;;;;;;0.95;0.30;;;;;;;11.67;79.18;99736.13;5030679;28;20049;-44
2022/09/30 04:00:31;;;;;;;3.05;0.40;;;;;;;11.67;78.90;99713.94;5032938;28;20049;-44
2022/09/30 04:06:48;;;;;;;3.60;0.50;;;;;;;11.66;78.81;99690.97;5031188;28;20053;-44
2022/09/30 04:09:15;;;;;;;0.20;0.20;;;;;;;11.65;78.72;99688.56;5031885;28;20041;-44
2022/09/30 04:11:43;;;;;;;1.95;0.35;;;;;;;11.66;78.71;99690.16;5026390;28;20104;-44
2022/09/30 04:14:10;;;;;;;1.10;0.38;;;;;;;11.66;78.75;99679.06;5028883;28;20045;-44
2022/09/30 04:20:29;;;;;;;1.75;0.50;;;;;;;11.61;78.76;99672.69;5032471;28;20037;-42
2022/09/30 04:23:16;;;;;;;0.85;0.43;;;;;;;11.60;78.78;99670.28;5024987;28;20120;-43
2022/09/30 04:26:05;;;;;;;2.33;0.50;;;;;;;11.58;78.71;99669.88;5031009;28;20411;-42
2022/09/30 04:28:53;;;;;;;1.05;0.50;;;;;;;11.57;78.71;99671.03;5032161;28;20060;-42
2022/09/30 04:31:41;;;;;;;1.73;0.30;;;;;;;11.56;78.64;99664.72;5020539;28;20050;-42
2022/09/30 04:34:28;;;;;;;0.40;0.20;;;;;;;11.55;78.82;99652.03;5023152;28;20064;-42
2022/09/30 04:37:15;;;;;;;1.48;0.45;;;;;;;11.54;78.80;99644.88;5030699;28;20046;-42
2022/09/30 04:40:02;;;;;;;0.75;0.35;;;;;;;11.52;78.83;99635.34;5031512;28;20047;-42
2022/09/30 04:42:49;;;;;;;0.50;0.40;;;;;;;11.51;78.84;99640.09;5028976;28;20045;-43
2022/09/30 04:45:16;;;;;;;2.17;0.47;;;;;;;11.50;79.06;99627.41;5031307;28;20463;-43
2022/09/30 04:47:46;;;;;;;1.92;0.50;;;;;;;11.48;79.11;99618.69;5032476;28;20132;-43
2022/09/30 04:57:53;;;;;;;3.45;0.68;;;;;;;11.42;79.53;99581.38;5021987;28;20052;-42
2022/09/30 05:04:38;;;;;;;1.92;0.50;;;;;;;11.38;80.07;99568.69;5026787;28;20120;-45
2022/09/30 05:07:07;;;;;;;3.95;1.75;;;;;;;11.37;80.21;99545.72;5030745;28;20045;-42
2022/09/30 05:09:35;;;;;;;0.30;0.30;;;;;;;11.35;80.27;99536.97;5032134;28;20046;-42
2022/09/30 05:12:02;;;;;;;2.22;1.13;;;;;;;11.36;80.46;99526.69;5013193;28;20521;-43
2022/09/30 05:26:31;;;;;;;1.55;0.50;;;;;;;11.40;81.31;99472.91;5026479;28;20107;-44
2022/09/30 05:28:58;;;;;;;1.05;0.50;;;;;;;11.42;81.22;99465.00;5025835;28;20042;-43
2022/09/30 05:31:25;;;;;;;4.80;2.60;;;;;;;11.45;81.32;99457.88;5033040;28;20047;-44
2022/09/30 05:34:31;;;;;;;0.95;0.40;;;;;;;11.47;81.78;99450.78;5032322;28;20040;-43
2022/09/30 05:40:39;;;;;;;1.13;0.50;;;;;;;11.47;82.01;99434.16;5026501;28;20335;-44
2022/09/30 05:43:06;;;;;;;0.60;0.60;;;;;;;11.48;82.11;99426.66;5032813;28;20390;-44
2022/09/30 05:45:33;;;;;;;2.97;1.00;;;;;;;11.49;82.46;99420.72;5032183;28;20522;-44
2022/09/30 05:48:01;;;;;;;0.90;0.50;;;;;;;11.52;82.64;99399.75;5035154;28;20052;-43
2022/09/30 05:54:28;;;;;;;0.95;0.65;;;;;;;11.57;83.09;99378.00;5030168;28;20038;-43
2022/09/30 06:08:27;;;;;;;1.13;0.60;;;;;;;11.70;83.61;99320.31;5030118;28;20491;-43
2022/09/30 06:11:19;;;;;;;0.32;0.32;;;;;;;11.73;83.84;99299.34;5030105;28;20415;-44
2022/09/30 06:13:56;;;;;;;0.82;0.50;;;;;;;11.76;84.06;99284.69;5027828;28;20107;-44
2022/09/30 06:24:13;;;;;;;0.40;0.40;;;;;;;11.83;84.74;99241.19;5032953;28;20052;-43
2022/09/30 06:30:31;;;;;;;0.95;0.30;;;;;;;11.87;85.33;99246.72;5031649;28;20041;-44
2022/09/30 06:33:00;;;;;;;1.75;0.25;;;;;;;11.93;85.60;99256.25;5031941;28;20049;-43
2022/09/30 06:35:27;;;;;;;1.88;0.28;;;;;;;11.94;85.59;99252.31;5028831;28;20030;-43
2022/09/30 06:37:54;;;;;;;0.52;0.10;;;;;;;11.97;86.18;99240.41;5034250;28;20046;-43
2022/09/30 06:40:21;;;;;;;0.30;0.20;;;;;;;12.00;86.09;99234.09;5033442;28;20506;-43
2022/09/30 06:42:48;;;;;;;2.50;0.30;;;;;;;12.03;86.30;99227.75;5032273;28;20491;-44
2022/09/30 06:56:23;;;;;;;0.47;0.30;;;;;;;12.05;86.86;99186.53;5029284;28;20564;-43
2022/09/30 06:58:49;;;;;;;0.85;0.40;;;;;;;12.06;86.80;99188.16;5035480;28;20049;-43
2022/09/30 07:01:16;;;;;;;1.38;0.50;;;;;;;12.10;87.23;99177.84;5027211;28;20041;-44
2022/09/30 07:04:08;;;;;;;0.60;0.40;;;;;;;12.11;87.27;99169.13;5029030;28;20491;-44
2022/09/30 07:06:38;;;;;;;0.30;0.30;;;;;;;12.11;87.54;99155.25;5026839;28;20059;-45
2022/09/30 07:12:56;;;;;;;0.55;0.30;;;;;;;12.19;87.90;99153.28;5028733;28;20079;-44
2022/09/30 07:15:23;;;;;;;0.40;0.30;;;;;;;12.22;88.05;99158.06;5031625;28;20053;-43
2022/09/30 07:17:52;;;;;;;1.48;0.20;;;;;;;12.26;88.63;99135.88;5028870;28;20060;-43
2022/09/30 07:20:19;;;;;;;0.65;0.10;;;;;;;12.31;88.69;99122.38;5030665;28;20045;-44
2022/09/30 07:22:46;;;;;;;0.35;0.20;;;;;;;12.36;88.62;99118.44;5025751;28;20049;-43
2022/09/30 07:29:24;;;;;;;0.25;0.10;;;;;;;12.42;89.09;99083.50;5031881;28;20055;-44
2022/09/30 07:36:07;;;;;;;0.80;0.20;;;;;;;12.46;89.31;99053.78;5026482;28;20037;-42
2022/09/30 07:38:37;;;;;;;1.65;0.17;;;;;;;12.46;89.45;99051.00;5033892;28;20434;-42
2022/09/30 07:41:11;;;;;;;0.93;0.30;;;;;;;12.49;90.05;99061.31;5033308;28;20041;-42
2022/09/30 07:43:41;;;;;;;0.05;0.05;;;;;;;12.53;89.99;99049.00;5031871;28;20495;-43
2022/09/30 07:50:22;;;;;;;0.80;0.20;;;;;;;12.65;90.28;99036.72;5018236;28;20101;-44
2022/09/30 07:56:31;;;;;;;1.90;0.30;;;;;;;12.74;90.40;98993.44;5033787;28;20582;-43
2022/09/30 07:59:18;;;;;;;2.85;0.85;;;;;;;12.78;90.53;98983.13;5032929;28;20037;-47
2022/09/30 08:01:44;;;;;;;1.55;0.30;;;;;;;12.81;90.75;98979.50;5028166;28;20064;-44
2022/09/30 08:04:12;;;;;;;1.75;0.40;;;;;;;12.84;90.91;98989.81;5031461;28;20061;-44
2022/09/30 08:06:42;;;;;;;2.70;0.40;;;;;;;12.86;90.95;98980.31;5027685;28;20050;-45
2022/09/30 08:09:09;;;;;;;3.33;0.35;;;;;;;12.87;91.50;98954.13;5032368;28;20055;-43
2022/09/30 08:11:37;;;;;;;1.30;0.40;;;;;;;12.87;91.80;98932.66;5031709;28;20072;-44
2022/09/30 08:14:04;;;;;;;0.85;0.30;;;;;;;12.89;91.88;98910.88;5029515;28;20096;-44
2022/09/30 08:20:23;;;;;;;2.15;0.73;;;;;;;12.91;92.41;98882.66;5024451;28;20055;-44
2022/09/30 08:22:54;;;;;;;3.70;1.45;;;;;;;12.92;92.27;98878.72;5030143;28;20394;-44
2022/09/30 08:25:26;;;;;;;3.58;0.50;;;;;;;12.93;92.53;98855.28;5031596;28;20041;-44
2022/09/30 08:27:54;;;;;;;1.75;0.35;;;;;;;12.95;92.78;98850.09;4999183;28;20481;-45
2022/09/30 08:30:21;;;;;;;3.85;1.08;;;;;;;12.97;92.76;98844.94;5031847;28;20125;-46
2022/09/30 08:32:48;;;;;;;0.30;0.30;;;;;;;12.99;93.35;98843.34;5026370;28;20049;-47
2022/09/30 08:35:52;;;;;;;0.65;0.20;;;;;;;13.03;93.34;98829.41;5031792;28;20051;-48
2022/09/30 08:42:37;;;;;;;0.22;0.20;;;;;;;13.10;93.38;98794.09;5024561;28;20037;-45
2022/09/30 08:50:00;;;;;;;0.50;0.22;;;;;;;13.21;93.73;98766.22;5025517;28;20045;-45
2022/09/30 08:52:56;;;;;;;0.20;0.03;;;;;;;13.24;93.88;98749.47;5029165;28;20053;-44
2022/09/30 08:55:45;;;;;;;0.35;0.10;;;;;;;13.27;94.25;98737.53;5028086;28;20048;-44
2022/09/30 09:06:15;;;;;;;4.15;0.40;;;;;;;13.45;94.40;98689.34;5025496;28;20352;-43
2022/09/30 09:08:57;;;;;;;0.00;0.00;;;;;;;13.49;94.29;98682.53;5032560;28;20037;-43
2022/09/30 09:11:42;;;;;;;;;;;;;;;13.56;94.87;98676.88;5035382;28;20552;-43
2022/09/30 09:14:20;;;;;;;0.45;0.10;;;;;;;13.63;94.06;98679.59;5035946;28;19920;-44
2022/09/30 09:17:10;;;;;;;0.30;0.10;;;;;;;13.70;94.18;98662.81;5007861;28;20052;-46
2022/09/30 09:19:56;;;;;;;0.25;0.15;;;;;;;13.79;94.08;98659.53;5010231;28;20390;-43
2022/09/30 09:22:25;;;;;;;0.20;0.10;;;;;;;13.88;94.05;98627.19;5036145;28;20458;-44
2022/09/30 09:25:54;;;;;;;1.08;0.00;;;;;;;13.96;94.01;98636.22;5035724;28;20051;-44
2022/09/30 09:28:36;;;;;;;0.20;0.00;;;;;;;14.03;93.70;98644.50;5017049;28;20100;-43
2022/09/30 09:34:50;;;;;;;0.15;0.08;;;;;;;14.14;93.29;98652.69;5034572;28;20068;-44
2022/09/30 09:45:37;;;;;;;0.63;0.28;;;;;;;14.15;94.05;98643.13;5002062;28;20045;-44
2022/09/30 09:48:14;;;;;;;0.95;0.40;;;;;;;14.14;94.32;98636.75;5035868;28;20053;-44
2022/09/30 09:54:40;;;;;;;0.63;0.20;;;;;;;14.13;94.93;98618.50;5035017;28;20092;-47
2022/09/30 09:57:15;;;;;;;0.88;0.20;;;;;;;14.18;95.01;98620.81;5034116;28;20091;-45
2022/09/30 09:59:55;;;;;;;0.32;0.17;;;;;;;14.24;95.48;98615.56;5034194;28;20041;-44
2022/09/30 10:03:02;;;;;;;0.75;0.22;;;;;;;14.27;95.67;98614.72;5034706;28;20037;-45
2022/09/30 10:05:38;;;;;;;1.10;0.13;;;;;;;14.29;95.69;98603.94;5032182;28;20156;-45
2022/09/30 10:08:12;;;;;;;3.03;0.40;;;;;;;14.31;95.91;98604.31;5004736;28;20145;-44
2022/09/30 10:11:26;;;;;;;0.98;0.20;;;;;;;14.31;96.10;98601.53;5023295;28;20074;-46
2022/09/30 10:13:58;;;;;;;1.52;0.20;;;;;;;14.30;96.29;98595.16;5034619;28;20080;-47
2022/09/30 10:16:51;;;;;;;0.68;0.35;;;;;;;14.31;96.62;98591.22;5033929;28;20057;-44
2022/09/30 10:26:28;;;;;;;0.90;0.20;;;;;;;14.35;97.04;98557.75;5015998;28;20442;-45
2022/09/30 10:28:59;;;;;;;0.70;0.20;;;;;;;14.38;97.31;98556.91;5035575;28;20046;-44
2022/09/30 10:39:43;;;;;;;1.13;0.30;;;;;;;14.52;97.46;98517.69;5026195;28;20040;-46
2022/09/30 10:46:03;;;;;;;0.20;0.10;;;;;;;14.59;97.67;98500.81;5032544;28;20033;-45
2022/09/30 10:48:53;;;;;;;1.20;0.10;;;;;;;14.60;97.71;98491.28;5023125;28;20049;-44
2022/09/30 10:51:47;;;;;;;0.40;0.10;;;;;;;14.64;98.01;98492.78;5034796;28;20049;-45
2022/09/30 10:54:35;;;;;;;0.13;0.10;;;;;;;14.70;98.00;98507.00;5033932;28;20061;-45
2022/09/30 11:05:28;;;;;;;1.17;0.20;;;;;;;14.91;97.89;98472.34;5033066;28;20052;-44
2022/09/30 11:08:16;;;;;;;0.65;0.10;;;;;;;14.96;97.82;98469.84;5029958;28;20084;-43
2022/09/30 11:11:03;;;;;;;1.50;0.30;;;;;;;15.02;97.76;98465.34;5021164;28;20056;-45
2022/09/30 11:17:58;;;;;;;0.77;0.10;;;;;;;15.13;98.02;98468.72;5032126;28;20043;-43
2022/09/30 11:24:42;;;;;;;0.10;0.10;;;;;;;15.21;97.88;98447.81;5032924;28;20033;-44
2022/09/30 11:27:51;;;;;;;0.13;0.00;;;;;;;15.27;97.86;98438.94;5026086;28;20042;-45
2022/09/30 11:34:32;;;;;;;0.93;0.05;;;;;;;15.34;97.97;98441.56;5026590;28;20100;-46
2022/09/30 11:37:10;;;;;;;0.30;0.30;;;;;;;15.36;97.90;98436.34;5022631;28;20041;-44
2022/09/30 11:40:11;;;;;;;1.30;0.20;;;;;;;15.38;98.02;98437.47;5031520;28;20053;-44
2022/09/30 11:43:13;;;;;;;0.63;0.30;;;;;;;15.43;98.15;98436.19;5032589;28;20045;-43
2022/09/30 11:46:17;;;;;;;0.10;0.00;;;;;;;15.44;98.20;98441.31;5015877;28;20408;-46
2022/09/30 11:49:29;;;;;;;0.40;0.10;;;;;;;15.46;98.27;98457.66;5031738;28;20381;-43
2022/09/30 11:56:14;;;;;;;0.22;0.10;;;;;;;15.48;98.52;98418.97;5033921;28;20099;-45
2022/09/30 12:03:21;;;;;;;1.05;0.10;;;;;;;15.49;98.76;98445.66;5033437;28;20087;-45
2022/09/30 12:05:56;;;;;;;4.82;0.55;;;;;;;15.48;98.78;98464.38;5026451;28;20394;-43
2022/09/30 12:09:44;;;;;;;0.98;0.32;;;;;;;15.42;99.16;98468.06;5031933;28;20529;-44
2022/09/30 12:12:45;;;;;;;1.80;0.20;;;;;;;15.36;99.57;98461.44;5032188;28;20053;-48
2022/09/30 12:30:40;;;;;;;0.52;0.30;;;;;;;15.37;100.00;98516.00;5022235;28;20025;-45
2022/09/30 12:33:52;;;;;;;1.85;0.50;;;;;;;15.39;100.00;98502.41;5028164;28;20509;-44
2022/09/30 12:41:14;;;;;;;2.22;0.68;;;;;;;15.40;100.00;98540.22;5033060;28;20380;-44
2022/09/30 12:44:02;;;;;;;3.53;1.10;;;;;;;15.44;100.00;98572.38;5035944;28;20048;-46
2022/09/30 12:46:47;;;;;;;6.45;1.30;;;;;;;15.47;99.92;98579.13;5036465;28;20076;-44
2022/09/30 12:49:39;;;;;;;11.07;1.70;;;;;;;15.47;99.65;98571.56;5035517;28;20045;-46
2022/09/30 12:52:58;;;;;;;10.90;2.38;;;;;;;15.51;99.01;98593.81;5035821;28;20048;-46
2022/09/30 12:55:46;;;;;;;6.93;2.33;;;;;;;15.67;98.95;98591.84;5023507;28;20629;-45
2022/09/30 12:58:23;;;;;;;14.75;2.40;;;;;;;15.96;98.36;98580.06;5036628;28;20140;-46
2022/09/30 13:09:10;;;;;;;10.48;2.45;;;;;;;16.89;95.67;98571.78;5032872;28;20128;-46
2022/09/30 13:16:46;;;;;;;13.43;2.78;;;;;;;17.17;93.69;98565.41;5035157;28;20144;-45
2022/09/30 13:19:36;;;;;;;10.73;2.47;;;;;;;17.30;92.46;98582.22;5035019;28;20120;-45
2022/09/30 13:22:42;;;;;;;18.08;3.35;;;;;;;17.39;91.93;98583.16;5035287;28;20140;-47
2022/09/30 13:29:46;;;;;;;15.65;3.28;;;;;;;17.55;89.75;98588.69;5033545;28;20124;-45
2022/09/30 13:32:36;;;;;;;16.23;3.80;;;;;;;17.71;88.81;98585.06;5023291;28;20521;-51
2022/09/30 13:43:34;;;;;;;13.77;2.88;;;;;;;17.88;84.33;98617.31;5029235;28;20391;-44
2022/09/30 13:50:19;;;;;;;15.18;2.33;;;;;;;17.74;82.65;98616.97;5034974;28;20034;-45
2022/09/30 14:05:04;;;;;;;15.80;2.58;;;;;;;17.95;78.66;98633.13;4998384;28;20049;-45
2022/09/30 14:07:42;;;;;;;11.93;2.15;;;;;;;17.95;77.49;98624.72;5028710;28;20084;-50
2022/09/30 14:10:46;;;;;;;8.43;2.28;;;;;;;18.04;77.13;98636.03;5028572;28;20084;-46
2022/09/30 14:21:11;;;;;;;12.93;2.75;;;;;;;18.82;74.82;98637.94;5001217;28;20042;-43
2022/09/30 14:23:37;;;;;;;13.98;4.13;;;;;;;19.00;73.69;98645.75;5034418;28;20059;-45
2022/09/30 14:26:38;;;;;;;8.77;1.98;;;;;;;18.79;72.50;98652.09;5034187;28;20414;-45
2022/09/30 14:29:48;;;;;;;10.70;1.98;;;;;;;18.35;72.66;98648.25;5034119;28;20052;-44
2022/09/30 14:32:24;;;;;;;9.65;2.03;;;;;;;18.03;73.31;98652.03;5025860;28;20105;-45
2022/09/30 14:38:57;;;;;;;5.97;2.03;;;;;;;18.10;74.57;98657.44;5022737;28;20091;-44
2022/09/30 14:45:27;;;;;;;7.13;2.00;;;;;;;18.39;73.16;98646.16;5035756;28;20075;-44
2022/09/30 14:48:21;;;;;;;8.57;1.73;;;;;;;18.48;72.30;98653.91;5015021;28;20041;-44
2022/09/30 14:51:17;;;;;;;7.03;1.23;;;;;;;18.61;70.98;98654.69;5025648;28;20049;-44
2022/09/30 14:54:02;;;;;;;7.90;2.08;;;;;;;18.72;70.01;98653.09;5035081;28;20487;-44
2022/09/30 14:56:34;;;;;;;3.47;1.13;;;;;;;18.82;68.39;98660.38;5034018;28;20049;-44
2022/09/30 15:02:43;;;;;;;6.43;1.80;;;;;;;19.03;69.10;98661.69;5024189;28;20044;-45
2022/09/30 15:05:13;;;;;;;8.70;2.17;;;;;;;19.13;68.48;98659.75;5032758;28;20052;-44
2022/09/30 15:07:40;;;;;;;8.20;1.73;;;;;;;19.17;67.66;98668.81;5033164;28;20048;-45
2022/09/30 15:19:45;;;;;;;4.13;1.17;;;;;;;18.97;66.19;98665.50;5026712;28;20057;-45
2022/09/30 15:22:32;;;;;;;3.53;1.35;;;;;;;18.85;64.58;98672.69;5031897;28;20487;-44
2022/09/30 15:33:03;;;;;;;6.45;1.42;;;;;;;18.58;63.67;98678.81;5027807;28;20076;-45
2022/09/30 15:35:32;;;;;;;6.72;1.63;;;;;;;18.45;63.36;98671.59;5032415;28;20129;-45
2022/09/30 15:38:21;;;;;;;6.28;1.38;;;;;;;18.45;63.46;98672.38;5031005;28;20041;-44
2022/09/30 15:40:58;;;;;;;12.38;1.60;;;;;;;18.46;62.97;98671.13;5027048;28;20071;-44
2022/09/30 15:43:34;;;;;;;12.63;1.70;;;;;;;18.27;62.55;98672.13;5034079;28;20038;-44
2022/09/30 15:53:34;;;;;;;6.43;2.08;;;;;;;17.28;62.47;98693.75;5032971;28;20037;-44
2022/09/30 15:56:20;;;;;;;8.90;2.17;;;;;;;17.16;62.29;98700.84;5032090;28;20045;-46
2022/09/30 15:59:24;;;;;;;10.30;2.10;;;;;;;17.02;62.42;98698.44;5016988;28;20139;-46
2022/09/30 16:05:32;;;;;;;8.68;1.95;;;;;;;16.77;62.82;98687.06;5014923;28;20037;-44
2022/09/30 16:08:24;;;;;;;3.70;1.38;;;;;;;16.76;62.86;98689.06;5031717;28;20521;-46
2022/09/30 16:11:54;;;;;;;8.95;3.13;;;;;;;16.73;63.10;98701.13;5032606;28;20491;-45
2022/09/30 16:14:25;;;;;;;7.72;1.60;;;;;;;16.73;63.56;98703.16;5028440;28;20042;-44
2022/09/30 16:21:44;;;;;;;10.93;2.17;;;;;;;16.62;64.05;98713.78;5031710;28;20037;-44
2022/09/30 16:24:31;;;;;;;6.38;1.80;;;;;;;16.60;64.38;98708.63;5033050;28;20042;-44
2022/09/30 16:27:14;;;;;;;10.38;2.10;;;;;;;16.57;64.46;98708.72;5033504;28;20132;-45
2022/09/30 16:29:41;;;;;;;5.82;1.85;;;;;;;16.52;64.65;98707.19;5015636;28;20052;-46
2022/09/30 16:32:08;;;;;;;12.82;3.17;;;;;;;16.50;64.83;98720.00;5031609;28;20060;-44
2022/09/30 16:35:18;;;;;;;7.78;2.58;;;;;;;16.45;65.10;98712.94;5020704;28;20602;-44
2022/09/30 16:38:15;;;;;;;5.38;1.63;;;;;;;16.34;65.46;98707.59;5032833;28;20053;-45
2022/09/30 16:44:55;;;;;;;11.35;2.53;;;;;;;16.13;66.19;98718.44;5029563;28;20042;-48
2022/09/30 16:55:47;;;;;;;8.07;1.60;;;;;;;15.85;66.89;98725.41;5011783;28;20038;-44
2022/09/30 16:58:14;;;;;;;11.13;1.95;;;;;;;15.81;67.02;98730.25;5011942;28;20426;-45
2022/09/30 17:00:43;;;;;;;10.43;2.42;;;;;;;15.76;67.31;98725.19;5021406;28;20046;-43
2022/09/30 17:03:13;;;;;;;5.45;1.55;;;;;;;15.72;67.48;98716.09;5029897;28;20048;-46
2022/09/30 17:05:42;;;;;;;9.27;1.98;;;;;;;15.63;67.76;98719.44;5030658;28;20056;-44
2022/09/30 17:09:00;;;;;;;13.00;1.88;;;;;;;15.60;68.04;98725.88;5032282;28;20045;-45
2022/09/30 17:11:52;;;;;;;16.15;2.10;;;;;;;15.54;68.10;98727.59;5012250;28;20075;-44
2022/09/30 17:18:10;;;;;;;14.23;2.55;;;;;;;15.46;68.76;98725.38;5011115;28;20552;-44
2022/09/30 17:20:42;;;;;;;15.82;3.05;;;;;;;15.45;69.36;98740.50;5011122;28;20058;-45
2022/09/30 17:23:20;;;;;;;;;;;;;;;15.40;69.60;98727.03;5012190;28;20054;-45
2022/09/30 17:26:07;;;;;;;12.77;3.28;;;;;;;15.33;69.83;98730.72;5013256;28;19932;-44
2022/09/30 17:28:34;;;;;;;10.23;2.05;;;;;;;15.29;70.19;98737.59;5015184;28;20046;-46
2022/09/30 17:35:32;;;;;;;12.45;2.13;;;;;;;15.14;71.15;98743.41;5010181;28;20042;-44
2022/09/30 17:37:59;;;;;;;12.55;2.90;;;;;;;15.09;71.40;98748.72;5011444;28;20049;-44
2022/09/30 17:44:07;;;;;;;9.82;2.30;;;;;;;14.99;71.93;98758.81;5012618;28;20050;-44
2022/09/30 17:54:06;;;;;;;11.63;2.88;;;;;;;14.76;72.62;98771.91;5007944;28;20040;-45
2022/09/30 17:56:34;;;;;;;19.20;4.72;;;;;;;14.70;72.68;98776.38;5011372;28;20049;-44
2022/09/30 17:59:01;;;;;;;16.60;4.40;;;;;;;14.64;72.92;98790.78;5011898;28;20125;-45
2022/09/30 18:04:59;;;;;;;14.85;2.80;;;;;;;14.51;73.08;98784.19;5012844;28;20038;-46
2022/09/30 18:11:25;;;;;;;20.20;4.78;;;;;;;14.38;73.14;98785.16;5025711;28;20399;-49
2022/09/30 18:14:58;;;;;;;11.52;2.47;;;;;;;14.33;73.31;98792.00;5027523;28;20504;-45
2022/09/30 18:17:26;;;;;;;10.30;3.20;;;;;;;14.29;73.10;98782.09;5030801;28;20038;-45
2022/09/30 18:27:57;;;;;;;14.93;3.88;;;;;;;14.10;73.54;98807.78;5026456;28;20045;-45
2022/09/30 18:30:45;;;;;;;11.80;2.55;;;;;;;14.05;73.45;98803.47;5028964;28;20510;-47
2022/09/30 18:33:33;;;;;;;10.20;3.42;;;;;;;14.02;73.61;98799.53;5027524;28;20491;-45
2022/09/30 18:36:05;;;;;;;10.70;2.20;;;;;;;13.98;73.58;98807.09;5030969;28;20048;-45
2022/09/30 18:38:33;;;;;;;8.60;2.85;;;;;;;13.96;73.72;98806.72;5033043;28;20049;-45
2022/09/30 18:41:00;;;;;;;11.55;2.50;;;;;;;13.93;73.93;98810.34;5024767;28;20052;-45
2022/09/30 18:43:27;;;;;;;12.73;2.80;;;;;;;13.90;73.82;98805.59;5022827;28;20045;-45
2022/09/30 18:45:55;;;;;;;10.93;4.18;;;;;;;13.88;74.11;98821.91;5033069;28;20037;-45
2022/09/30 18:48:23;;;;;;;9.70;2.72;;;;;;;13.84;74.16;98807.28;5027542;28;20136;-45
2022/09/30 18:50:50;;;;;;;10.82;3.53;;;;;;;13.81;74.30;98812.88;5029592;28;20041;-46
2022/09/30 18:57:08;;;;;;;10.25;2.42;;;;;;;13.76;74.59;98808.56;5025027;28;20037;-45
2022/09/30 19:00:10;;;;;;;8.15;2.20;;;;;;;13.75;74.81;98801.41;5030421;28;20506;-45
2022/09/30 19:02:51;;;;;;;10.75;2.05;;;;;;;13.72;74.74;98799.44;5017316;28;20041;-44
2022/09/30 19:05:18;;;;;;;11.93;2.25;;;;;;;13.72;74.73;98787.53;5032087;28;20048;-46
2022/09/30 19:07:45;;;;;;;9.93;2.35;;;;;;;13.70;74.92;98796.28;5013933;28;20041;-44
2022/09/30 19:15:07;;;;;;;7.38;2.55;;;;;;;13.65;75.43;98805.09;5026257;28;20041;-45
2022/09/30 19:21:52;;;;;;;17.33;4.72;;;;;;;13.62;75.39;98794.00;5023074;28;20053;-45
2022/09/30 19:24:41;;;;;;;9.27;1.95;;;;;;;13.59;75.58;98787.25;5023224;28;20064;-44
2022/09/30 19:27:28;;;;;;;8.77;2.20;;;;;;;13.58;75.66;98815.50;5022649;28;20050;-45
2022/09/30 19:30:15;;;;;;;16.20;2.67;;;;;;;13.54;75.71;98807.19;5021186;28;20048;-47
2022/09/30 19:33:03;;;;;;;10.30;2.47;;;;;;;13.51;75.49;98796.88;5025304;28;20045;-45
2022/09/30 19:35:30;;;;;;;7.80;1.70;;;;;;;13.48;75.81;98806.03;5016496;28;20050;-44
2022/09/30 19:38:06;;;;;;;6.03;1.98;;;;;;;13.46;75.82;98807.66;5024888;28;20040;-44
2022/09/30 19:40:32;;;;;;;11.70;2.35;;;;;;;13.43;76.03;98798.16;5021632;28;20045;-46
2022/09/30 19:43:06;;;;;;;10.60;2.65;;;;;;;13.42;76.14;98818.81;5030442;28;20521;-45
2022/09/30 19:45:33;;;;;;;4.97;2.47;;;;;;;13.38;76.23;98834.72;5030873;28;20037;-45
2022/09/30 19:48:47;;;;;;;13.65;2.88;;;;;;;13.33;76.57;98826.81;5024252;28;20091;-45
2022/09/30 19:55:15;;;;;;;9.93;3.10;;;;;;;13.26;76.73;98832.47;5030356;28;20091;-44
2022/09/30 19:57:42;;;;;;;11.70;2.88;;;;;;;13.23;76.91;98844.38;5031133;28;20104;-44
2022/09/30 20:00:29;;;;;;;11.52;2.55;;;;;;;13.19;77.22;98843.59;5025818;28;20057;-45
2022/09/30 20:07:28;;;;;;;15.57;3.80;;;;;;;13.09;77.72;98850.03;5025220;28;20057;-45
2022/09/30 20:10:15;;;;;;;9.07;2.83;;;;;;;13.08;77.90;98859.59;5027129;28;20049;-45